sensor_id;sensor_type;location;lat;lon;timestamp;P1;durP1;ratioP1;P2;durP2;ratioP2
39694;SDS011;25367;-35.352;149.036;2023-05-07T00:02:06;0.40;;;0.10;;
39694;SDS011;25367;-35.352;149.036;2023-05-07T00:04:38;2.50;;;0.40;;
39694;SDS011;25367;-35.352;149.036;2023-05-07T00:07:07;1.63;;;0.40;;
39694;SDS011;25367;-35.352;149.036;2023-05-07T00:09:36;0.85;;;0.20;;
39694;SDS011;25367;-35.352;149.036;2023-05-07T00:12:06;0.75;;;0.30;;
39694;SDS011;25367;-35.352;149.036;2023-05-07T00:14:35;2.13;;;0.57;;
39694;SDS011;25367;-35.352;149.036;2023-05-07T00:17:05;0.20;;;0.20;;
39694;SDS011;25367;-35.352;149.036;2023-05-07T00:19:37;0.28;;;0.20;;
39694;SDS011;25367;-35.352;149.036;2023-05-07T00:22:07;0.10;;;0.10;;
39694;SDS011;25367;-35.352;149.036;2023-05-07T00:24:37;0.20;;;0.20;;
39694;SDS011;25367;-35.352;149.036;2023-05-07T00:27:07;0.95;;;0.45;;
39694;SDS011;25367;-35.352;149.036;2023-05-07T00:29:36;0.30;;;0.10;;
39694;SDS011;25367;-35.352;149.036;2023-05-07T00:32:06;0.75;;;0.20;;
39694;SDS011;25367;-35.352;149.036;2023-05-07T00:34:38;2.05;;;0.10;;
39694;SDS011;25367;-35.352;149.036;2023-05-07T00:37:07;1.00;;;0.32;;
39694;SDS011;25367;-35.352;149.036;2023-05-07T00:39:36;2.63;;;0.10;;
39694;SDS011;25367;-35.352;149.036;2023-05-07T00:42:06;1.38;;;0.20;;
39694;SDS011;25367;-35.352;149.036;2023-05-07T00:44:35;0.43;;;0.10;;
39694;SDS011;25367;-35.352;149.036;2023-05-07T00:47:04;0.70;;;0.50;;
39694;SDS011;25367;-35.352;149.036;2023-05-07T00:49:35;2.40;;;0.30;;
39694;SDS011;25367;-35.352;149.036;2023-05-07T00:52:09;5.18;;;0.70;;
39694;SDS011;25367;-35.352;149.036;2023-05-07T00:54:41;1.95;;;0.70;;
39694;SDS011;25367;-35.352;149.036;2023-05-07T00:57:10;5.00;;;0.60;;
39694;SDS011;25367;-35.352;149.036;2023-05-07T00:59:40;25.73;;;0.85;;
39694;SDS011;25367;-35.352;149.036;2023-05-07T01:02:10;2.33;;;0.20;;
39694;SDS011;25367;-35.352;149.036;2023-05-07T01:04:43;2.55;;;0.32;;
39694;SDS011;25367;-35.352;149.036;2023-05-07T01:07:12;13.77;;;0.82;;
39694;SDS011;25367;-35.352;149.036;2023-05-07T01:09:43;18.17;;;1.08;;
39694;SDS011;25367;-35.352;149.036;2023-05-07T01:12:12;5.35;;;0.85;;
39694;SDS011;25367;-35.352;149.036;2023-05-07T01:14:42;25.73;;;1.73;;
39694;SDS011;25367;-35.352;149.036;2023-05-07T01:17:11;5.50;;;0.60;;
39694;SDS011;25367;-35.352;149.036;2023-05-07T01:19:43;7.38;;;0.40;;
39694;SDS011;25367;-35.352;149.036;2023-05-07T01:22:13;2.95;;;0.32;;
39694;SDS011;25367;-35.352;149.036;2023-05-07T01:24:52;6.55;;;0.40;;
39694;SDS011;25367;-35.352;149.036;2023-05-07T01:27:21;3.47;;;0.43;;
39694;SDS011;25367;-35.352;149.036;2023-05-07T01:29:52;4.13;;;0.28;;
39694;SDS011;25367;-35.352;149.036;2023-05-07T01:32:23;3.40;;;0.45;;
39694;SDS011;25367;-35.352;149.036;2023-05-07T01:34:55;2.20;;;0.35;;
39694;SDS011;25367;-35.352;149.036;2023-05-07T01:37:25;5.85;;;0.45;;
39694;SDS011;25367;-35.352;149.036;2023-05-07T01:39:57;5.60;;;0.50;;
39694;SDS011;25367;-35.352;149.036;2023-05-07T01:42:27;6.03;;;0.65;;
39694;SDS011;25367;-35.352;149.036;2023-05-07T01:44:58;1.33;;;0.20;;
39694;SDS011;25367;-35.352;149.036;2023-05-07T01:47:28;2.30;;;0.20;;
39694;SDS011;25367;-35.352;149.036;2023-05-07T01:49:58;2.15;;;0.38;;
39694;SDS011;25367;-35.352;149.036;2023-05-07T01:52:28;3.25;;;0.22;;
39694;SDS011;25367;-35.352;149.036;2023-05-07T01:54:59;1.02;;;0.20;;
39694;SDS011;25367;-35.352;149.036;2023-05-07T01:57:29;4.68;;;0.30;;
39694;SDS011;25367;-35.352;149.036;2023-05-07T01:59:58;2.17;;;0.50;;
39694;SDS011;25367;-35.352;149.036;2023-05-07T02:02:28;1.20;;;0.20;;
39694;SDS011;25367;-35.352;149.036;2023-05-07T02:04:59;0.40;;;0.10;;
39694;SDS011;25367;-35.352;149.036;2023-05-07T02:07:29;0.38;;;0.17;;
39694;SDS011;25367;-35.352;149.036;2023-05-07T02:10:00;6.18;;;0.30;;
39694;SDS011;25367;-35.352;149.036;2023-05-07T02:12:30;1.13;;;0.20;;
39694;SDS011;25367;-35.352;149.036;2023-05-07T02:14:59;0.40;;;0.22;;
39694;SDS011;25367;-35.352;149.036;2023-05-07T02:17:29;2.92;;;0.20;;
39694;SDS011;25367;-35.352;149.036;2023-05-07T02:19:59;5.47;;;0.50;;
39694;SDS011;25367;-35.352;149.036;2023-05-07T02:22:28;1.55;;;0.30;;
39694;SDS011;25367;-35.352;149.036;2023-05-07T02:24:57;2.65;;;0.63;;
39694;SDS011;25367;-35.352;149.036;2023-05-07T02:27:29;1.23;;;0.30;;
39694;SDS011;25367;-35.352;149.036;2023-05-07T02:29:58;3.75;;;0.35;;
39694;SDS011;25367;-35.352;149.036;2023-05-07T02:32:28;3.33;;;0.32;;
39694;SDS011;25367;-35.352;149.036;2023-05-07T02:34:57;2.50;;;0.22;;
39694;SDS011;25367;-35.352;149.036;2023-05-07T02:37:27;6.82;;;0.73;;
39694;SDS011;25367;-35.352;149.036;2023-05-07T02:39:56;4.47;;;0.25;;
39694;SDS011;25367;-35.352;149.036;2023-05-07T02:42:28;0.80;;;0.25;;
39694;SDS011;25367;-35.352;149.036;2023-05-07T02:44:57;4.97;;;0.63;;
39694;SDS011;25367;-35.352;149.036;2023-05-07T02:47:27;1.25;;;0.60;;
39694;SDS011;25367;-35.352;149.036;2023-05-07T02:49:58;2.20;;;0.47;;
39694;SDS011;25367;-35.352;149.036;2023-05-07T02:52:28;0.88;;;0.20;;
39694;SDS011;25367;-35.352;149.036;2023-05-07T02:54:57;5.53;;;0.30;;
39694;SDS011;25367;-35.352;149.036;2023-05-07T02:57:29;9.40;;;0.38;;
39694;SDS011;25367;-35.352;149.036;2023-05-07T02:59:59;1.60;;;0.55;;
39694;SDS011;25367;-35.352;149.036;2023-05-07T03:02:38;4.30;;;0.50;;
39694;SDS011;25367;-35.352;149.036;2023-05-07T03:05:08;1.17;;;0.25;;
39694;SDS011;25367;-35.352;149.036;2023-05-07T03:07:37;1.92;;;0.30;;
39694;SDS011;25367;-35.352;149.036;2023-05-07T03:10:07;2.00;;;0.10;;
39694;SDS011;25367;-35.352;149.036;2023-05-07T03:12:39;0.65;;;0.32;;
39694;SDS011;25367;-35.352;149.036;2023-05-07T03:15:10;2.85;;;0.20;;
39694;SDS011;25367;-35.352;149.036;2023-05-07T03:17:39;1.38;;;0.30;;
39694;SDS011;25367;-35.352;149.036;2023-05-07T03:20:09;3.90;;;0.30;;
39694;SDS011;25367;-35.352;149.036;2023-05-07T03:22:39;2.60;;;0.38;;
39694;SDS011;25367;-35.352;149.036;2023-05-07T03:25:09;0.52;;;0.30;;
39694;SDS011;25367;-35.352;149.036;2023-05-07T03:27:40;2.70;;;0.30;;
39694;SDS011;25367;-35.352;149.036;2023-05-07T03:30:11;2.13;;;0.25;;
39694;SDS011;25367;-35.352;149.036;2023-05-07T03:32:41;0.10;;;0.10;;
39694;SDS011;25367;-35.352;149.036;2023-05-07T03:35:12;1.85;;;0.30;;
39694;SDS011;25367;-35.352;149.036;2023-05-07T03:37:42;0.82;;;0.35;;
39694;SDS011;25367;-35.352;149.036;2023-05-07T03:40:12;1.50;;;0.45;;
39694;SDS011;25367;-35.352;149.036;2023-05-07T03:42:50;1.95;;;0.45;;
39694;SDS011;25367;-35.352;149.036;2023-05-07T03:45:22;8.45;;;2.17;;
39694;SDS011;25367;-35.352;149.036;2023-05-07T03:48:00;8.90;;;2.22;;
39694;SDS011;25367;-35.352;149.036;2023-05-07T03:50:29;15.20;;;4.80;;
39694;SDS011;25367;-35.352;149.036;2023-05-07T03:52:59;13.30;;;5.05;;
39694;SDS011;25367;-35.352;149.036;2023-05-07T03:55:30;13.32;;;3.97;;
39694;SDS011;25367;-35.352;149.036;2023-05-07T03:58:03;18.52;;;5.55;;
39694;SDS011;25367;-35.352;149.036;2023-05-07T04:00:32;21.92;;;6.55;;
39694;SDS011;25367;-35.352;149.036;2023-05-07T04:03:02;14.88;;;4.43;;
39694;SDS011;25367;-35.352;149.036;2023-05-07T04:05:31;13.77;;;4.85;;
39694;SDS011;25367;-35.352;149.036;2023-05-07T04:08:03;11.20;;;3.60;;
39694;SDS011;25367;-35.352;149.036;2023-05-07T04:10:39;9.55;;;3.63;;
39694;SDS011;25367;-35.352;149.036;2023-05-07T04:13:14;8.52;;;2.67;;
39694;SDS011;25367;-35.352;149.036;2023-05-07T04:15:44;7.78;;;2.97;;
39694;SDS011;25367;-35.352;149.036;2023-05-07T04:18:16;7.55;;;2.70;;
39694;SDS011;25367;-35.352;149.036;2023-05-07T04:20:47;8.32;;;2.28;;
39694;SDS011;25367;-35.352;149.036;2023-05-07T04:23:17;5.03;;;2.17;;
39694;SDS011;25367;-35.352;149.036;2023-05-07T04:25:46;8.57;;;1.80;;
39694;SDS011;25367;-35.352;149.036;2023-05-07T04:28:33;7.15;;;2.33;;
39694;SDS011;25367;-35.352;149.036;2023-05-07T04:31:05;12.60;;;2.63;;
39694;SDS011;25367;-35.352;149.036;2023-05-07T04:33:37;11.32;;;1.90;;
39694;SDS011;25367;-35.352;149.036;2023-05-07T04:36:10;4.20;;;1.60;;
39694;SDS011;25367;-35.352;149.036;2023-05-07T04:38:47;5.55;;;2.55;;
39694;SDS011;25367;-35.352;149.036;2023-05-07T04:41:17;6.28;;;1.83;;
39694;SDS011;25367;-35.352;149.036;2023-05-07T04:43:50;9.30;;;2.20;;
39694;SDS011;25367;-35.352;149.036;2023-05-07T04:46:21;10.02;;;1.73;;
39694;SDS011;25367;-35.352;149.036;2023-05-07T04:48:51;6.43;;;1.80;;
39694;SDS011;25367;-35.352;149.036;2023-05-07T04:51:22;4.93;;;1.90;;
39694;SDS011;25367;-35.352;149.036;2023-05-07T04:53:51;2.53;;;1.50;;
39694;SDS011;25367;-35.352;149.036;2023-05-07T04:56:21;38.67;;;2.75;;
39694;SDS011;25367;-35.352;149.036;2023-05-07T04:58:52;7.93;;;1.65;;
39694;SDS011;25367;-35.352;149.036;2023-05-07T05:01:22;10.75;;;1.38;;
39694;SDS011;25367;-35.352;149.036;2023-05-07T05:03:52;6.72;;;1.30;;
39694;SDS011;25367;-35.352;149.036;2023-05-07T05:06:21;8.85;;;1.65;;
39694;SDS011;25367;-35.352;149.036;2023-05-07T05:08:52;8.93;;;1.77;;
39694;SDS011;25367;-35.352;149.036;2023-05-07T05:11:22;6.18;;;1.27;;
39694;SDS011;25367;-35.352;149.036;2023-05-07T05:13:54;11.10;;;2.05;;
39694;SDS011;25367;-35.352;149.036;2023-05-07T05:16:23;9.57;;;1.73;;
39694;SDS011;25367;-35.352;149.036;2023-05-07T05:18:53;1.55;;;0.90;;
39694;SDS011;25367;-35.352;149.036;2023-05-07T05:21:23;4.15;;;1.30;;
39694;SDS011;25367;-35.352;149.036;2023-05-07T05:23:57;3.47;;;1.20;;
39694;SDS011;25367;-35.352;149.036;2023-05-07T05:26:27;3.22;;;1.20;;
39694;SDS011;25367;-35.352;149.036;2023-05-07T05:28:59;3.33;;;1.30;;
39694;SDS011;25367;-35.352;149.036;2023-05-07T05:31:31;4.25;;;2.10;;
39694;SDS011;25367;-35.352;149.036;2023-05-07T05:34:00;3.92;;;2.17;;
39694;SDS011;25367;-35.352;149.036;2023-05-07T05:36:30;3.58;;;1.90;;
39694;SDS011;25367;-35.352;149.036;2023-05-07T05:38:59;3.92;;;2.30;;
39694;SDS011;25367;-35.352;149.036;2023-05-07T05:41:29;2.22;;;1.70;;
39694;SDS011;25367;-35.352;149.036;2023-05-07T05:44:02;2.72;;;1.90;;
39694;SDS011;25367;-35.352;149.036;2023-05-07T05:46:31;2.35;;;1.75;;
39694;SDS011;25367;-35.352;149.036;2023-05-07T05:49:01;3.00;;;1.70;;
39694;SDS011;25367;-35.352;149.036;2023-05-07T05:51:32;2.05;;;1.48;;
39694;SDS011;25367;-35.352;149.036;2023-05-07T05:54:02;3.33;;;1.83;;
39694;SDS011;25367;-35.352;149.036;2023-05-07T05:56:36;2.67;;;1.70;;
39694;SDS011;25367;-35.352;149.036;2023-05-07T05:59:08;2.53;;;1.65;;
39694;SDS011;25367;-35.352;149.036;2023-05-07T06:01:38;3.20;;;1.48;;
39694;SDS011;25367;-35.352;149.036;2023-05-07T06:04:08;5.95;;;1.70;;
39694;SDS011;25367;-35.352;149.036;2023-05-07T06:06:38;5.93;;;1.77;;
39694;SDS011;25367;-35.352;149.036;2023-05-07T06:09:08;5.18;;;1.55;;
39694;SDS011;25367;-35.352;149.036;2023-05-07T06:11:42;2.05;;;1.42;;
39694;SDS011;25367;-35.352;149.036;2023-05-07T06:14:16;11.85;;;1.80;;
39694;SDS011;25367;-35.352;149.036;2023-05-07T06:16:46;2.17;;;1.40;;
39694;SDS011;25367;-35.352;149.036;2023-05-07T06:19:16;3.05;;;1.27;;
39694;SDS011;25367;-35.352;149.036;2023-05-07T06:21:45;5.03;;;1.75;;
39694;SDS011;25367;-35.352;149.036;2023-05-07T06:24:16;4.45;;;1.20;;
39694;SDS011;25367;-35.352;149.036;2023-05-07T06:26:45;3.38;;;1.48;;
39694;SDS011;25367;-35.352;149.036;2023-05-07T06:29:18;4.10;;;1.33;;
39694;SDS011;25367;-35.352;149.036;2023-05-07T06:31:47;5.32;;;1.25;;
39694;SDS011;25367;-35.352;149.036;2023-05-07T06:34:17;2.28;;;1.08;;
39694;SDS011;25367;-35.352;149.036;2023-05-07T06:36:46;1.77;;;1.05;;
39694;SDS011;25367;-35.352;149.036;2023-05-07T06:39:26;3.20;;;1.45;;
39694;SDS011;25367;-35.352;149.036;2023-05-07T06:41:55;2.45;;;1.17;;
39694;SDS011;25367;-35.352;149.036;2023-05-07T06:44:33;2.47;;;1.40;;
39694;SDS011;25367;-35.352;149.036;2023-05-07T06:47:17;1.38;;;0.80;;
39694;SDS011;25367;-35.352;149.036;2023-05-07T06:49:50;9.85;;;1.20;;
39694;SDS011;25367;-35.352;149.036;2023-05-07T06:52:22;2.08;;;1.15;;
39694;SDS011;25367;-35.352;149.036;2023-05-07T06:54:53;7.82;;;1.73;;
39694;SDS011;25367;-35.352;149.036;2023-05-07T06:57:24;3.80;;;1.27;;
39694;SDS011;25367;-35.352;149.036;2023-05-07T06:59:57;1.15;;;0.90;;
39694;SDS011;25367;-35.352;149.036;2023-05-07T07:02:26;2.40;;;1.10;;
39694;SDS011;25367;-35.352;149.036;2023-05-07T07:04:56;3.67;;;0.85;;
39694;SDS011;25367;-35.352;149.036;2023-05-07T07:07:26;2.97;;;1.10;;
39694;SDS011;25367;-35.352;149.036;2023-05-07T07:09:56;2.10;;;1.00;;
39694;SDS011;25367;-35.352;149.036;2023-05-07T07:12:26;2.75;;;1.27;;
39694;SDS011;25367;-35.352;149.036;2023-05-07T07:14:58;5.80;;;1.52;;
39694;SDS011;25367;-35.352;149.036;2023-05-07T07:17:28;3.00;;;1.00;;
39694;SDS011;25367;-35.352;149.036;2023-05-07T07:19:57;5.38;;;1.30;;
39694;SDS011;25367;-35.352;149.036;2023-05-07T07:22:27;7.95;;;1.33;;
39694;SDS011;25367;-35.352;149.036;2023-05-07T07:24:56;1.92;;;1.00;;
39694;SDS011;25367;-35.352;149.036;2023-05-07T07:27:26;8.50;;;1.55;;
39694;SDS011;25367;-35.352;149.036;2023-05-07T07:29:58;2.90;;;1.00;;
39694;SDS011;25367;-35.352;149.036;2023-05-07T07:32:30;2.58;;;0.93;;
39694;SDS011;25367;-35.352;149.036;2023-05-07T07:35:00;5.75;;;0.98;;
39694;SDS011;25367;-35.352;149.036;2023-05-07T07:37:29;6.00;;;0.93;;
39694;SDS011;25367;-35.352;149.036;2023-05-07T07:40:00;3.05;;;0.88;;
39694;SDS011;25367;-35.352;149.036;2023-05-07T07:42:29;5.97;;;1.42;;
39694;SDS011;25367;-35.352;149.036;2023-05-07T07:45:02;3.70;;;1.30;;
39694;SDS011;25367;-35.352;149.036;2023-05-07T07:47:35;4.35;;;1.50;;
39694;SDS011;25367;-35.352;149.036;2023-05-07T07:50:04;4.38;;;1.08;;
39694;SDS011;25367;-35.352;149.036;2023-05-07T07:52:35;6.30;;;1.27;;
39694;SDS011;25367;-35.352;149.036;2023-05-07T07:55:04;5.28;;;1.08;;
39694;SDS011;25367;-35.352;149.036;2023-05-07T07:57:35;5.15;;;1.00;;
39694;SDS011;25367;-35.352;149.036;2023-05-07T08:00:09;7.60;;;1.05;;
39694;SDS011;25367;-35.352;149.036;2023-05-07T08:02:45;4.82;;;1.30;;
39694;SDS011;25367;-35.352;149.036;2023-05-07T08:05:22;8.57;;;1.45;;
39694;SDS011;25367;-35.352;149.036;2023-05-07T08:07:53;4.65;;;1.17;;
39694;SDS011;25367;-35.352;149.036;2023-05-07T08:10:27;4.10;;;1.02;;
39694;SDS011;25367;-35.352;149.036;2023-05-07T08:13:04;9.43;;;1.52;;
39694;SDS011;25367;-35.352;149.036;2023-05-07T08:15:39;9.95;;;1.83;;
39694;SDS011;25367;-35.352;149.036;2023-05-07T08:18:09;3.63;;;1.20;;
39694;SDS011;25367;-35.352;149.036;2023-05-07T08:20:39;5.55;;;1.08;;
39694;SDS011;25367;-35.352;149.036;2023-05-07T08:23:13;14.35;;;1.50;;
39694;SDS011;25367;-35.352;149.036;2023-05-07T08:25:43;13.30;;;1.60;;
39694;SDS011;25367;-35.352;149.036;2023-05-07T08:28:14;6.38;;;1.25;;
39694;SDS011;25367;-35.352;149.036;2023-05-07T08:30:46;5.28;;;1.23;;
39694;SDS011;25367;-35.352;149.036;2023-05-07T08:33:16;5.45;;;1.40;;
39694;SDS011;25367;-35.352;149.036;2023-05-07T08:35:45;2.50;;;1.20;;
39694;SDS011;25367;-35.352;149.036;2023-05-07T08:38:16;9.00;;;1.67;;
39694;SDS011;25367;-35.352;149.036;2023-05-07T08:40:45;2.88;;;1.17;;
39694;SDS011;25367;-35.352;149.036;2023-05-07T08:45:51;1.30;;;0.80;;
39694;SDS011;25367;-35.352;149.036;2023-05-07T08:48:25;2.03;;;1.20;;
39694;SDS011;25367;-35.352;149.036;2023-05-07T08:51:05;1.52;;;0.80;;
39694;SDS011;25367;-35.352;149.036;2023-05-07T08:53:36;2.10;;;0.85;;
39694;SDS011;25367;-35.352;149.036;2023-05-07T08:56:13;1.45;;;1.13;;
39694;SDS011;25367;-35.352;149.036;2023-05-07T08:58:42;2.58;;;1.33;;
39694;SDS011;25367;-35.352;149.036;2023-05-07T09:01:16;2.10;;;1.17;;
39694;SDS011;25367;-35.352;149.036;2023-05-07T09:03:51;2.03;;;1.30;;
39694;SDS011;25367;-35.352;149.036;2023-05-07T09:06:22;2.58;;;1.35;;
39694;SDS011;25367;-35.352;149.036;2023-05-07T09:08:52;1.70;;;1.10;;
39694;SDS011;25367;-35.352;149.036;2023-05-07T09:11:25;2.03;;;1.10;;
39694;SDS011;25367;-35.352;149.036;2023-05-07T09:13:57;1.95;;;1.50;;
39694;SDS011;25367;-35.352;149.036;2023-05-07T09:16:30;1.70;;;1.10;;
39694;SDS011;25367;-35.352;149.036;2023-05-07T09:19:01;4.03;;;1.27;;
39694;SDS011;25367;-35.352;149.036;2023-05-07T09:21:30;2.38;;;1.33;;
39694;SDS011;25367;-35.352;149.036;2023-05-07T09:24:03;1.55;;;1.00;;
39694;SDS011;25367;-35.352;149.036;2023-05-07T09:26:39;1.90;;;1.17;;
39694;SDS011;25367;-35.352;149.036;2023-05-07T09:29:11;1.80;;;1.10;;
39694;SDS011;25367;-35.352;149.036;2023-05-07T09:31:44;2.65;;;1.20;;
39694;SDS011;25367;-35.352;149.036;2023-05-07T09:34:16;2.67;;;1.20;;
39694;SDS011;25367;-35.352;149.036;2023-05-07T09:36:47;3.83;;;1.02;;
39694;SDS011;25367;-35.352;149.036;2023-05-07T09:39:17;1.98;;;1.02;;
39694;SDS011;25367;-35.352;149.036;2023-05-07T09:41:47;2.55;;;1.60;;
39694;SDS011;25367;-35.352;149.036;2023-05-07T09:44:23;2.75;;;0.90;;
39694;SDS011;25367;-35.352;149.036;2023-05-07T09:46:57;0.90;;;0.70;;
39694;SDS011;25367;-35.352;149.036;2023-05-07T09:49:37;1.10;;;0.73;;
39694;SDS011;25367;-35.352;149.036;2023-05-07T09:52:12;2.83;;;1.15;;
39694;SDS011;25367;-35.352;149.036;2023-05-07T09:54:47;1.48;;;0.88;;
39694;SDS011;25367;-35.352;149.036;2023-05-07T09:57:20;0.80;;;0.67;;
39694;SDS011;25367;-35.352;149.036;2023-05-07T09:59:54;1.33;;;0.75;;
39694;SDS011;25367;-35.352;149.036;2023-05-07T10:02:31;1.00;;;0.60;;
39694;SDS011;25367;-35.352;149.036;2023-05-07T10:05:03;2.20;;;0.90;;
39694;SDS011;25367;-35.352;149.036;2023-05-07T10:07:35;1.23;;;0.90;;
39694;SDS011;25367;-35.352;149.036;2023-05-07T10:10:09;0.70;;;0.50;;
39694;SDS011;25367;-35.352;149.036;2023-05-07T10:12:43;1.63;;;0.80;;
39694;SDS011;25367;-35.352;149.036;2023-05-07T10:15:18;0.90;;;0.60;;
39694;SDS011;25367;-35.352;149.036;2023-05-07T10:17:55;1.25;;;0.90;;
39694;SDS011;25367;-35.352;149.036;2023-05-07T10:20:27;1.20;;;0.80;;
39694;SDS011;25367;-35.352;149.036;2023-05-07T10:22:57;1.10;;;0.80;;
39694;SDS011;25367;-35.352;149.036;2023-05-07T10:25:37;3.05;;;1.40;;
39694;SDS011;25367;-35.352;149.036;2023-05-07T10:28:15;1.15;;;0.80;;
39694;SDS011;25367;-35.352;149.036;2023-05-07T10:30:49;0.95;;;0.60;;
39694;SDS011;25367;-35.352;149.036;2023-05-07T10:33:31;1.00;;;0.80;;
39694;SDS011;25367;-35.352;149.036;2023-05-07T10:36:04;1.85;;;0.60;;
39694;SDS011;25367;-35.352;149.036;2023-05-07T10:38:35;1.27;;;0.80;;
39694;SDS011;25367;-35.352;149.036;2023-05-07T10:41:06;4.70;;;0.73;;
39694;SDS011;25367;-35.352;149.036;2023-05-07T10:43:39;1.00;;;0.63;;
39694;SDS011;25367;-35.352;149.036;2023-05-07T10:46:11;1.30;;;0.70;;
39694;SDS011;25367;-35.352;149.036;2023-05-07T10:52:12;0.75;;;0.50;;
39694;SDS011;25367;-35.352;149.036;2023-05-07T10:55:18;1.02;;;0.47;;
39694;SDS011;25367;-35.352;149.036;2023-05-07T10:58:24;0.75;;;0.47;;
39694;SDS011;25367;-35.352;149.036;2023-05-07T11:01:01;1.00;;;0.40;;
39694;SDS011;25367;-35.352;149.036;2023-05-07T11:03:37;0.68;;;0.50;;
39694;SDS011;25367;-35.352;149.036;2023-05-07T11:07:23;1.00;;;0.20;;
39694;SDS011;25367;-35.352;149.036;2023-05-07T11:10:00;0.60;;;0.43;;
39694;SDS011;25367;-35.352;149.036;2023-05-07T11:13:00;2.72;;;0.55;;
39694;SDS011;25367;-35.352;149.036;2023-05-07T11:15:38;0.55;;;0.40;;
39694;SDS011;25367;-35.352;149.036;2023-05-07T11:18:18;0.70;;;0.32;;
39694;SDS011;25367;-35.352;149.036;2023-05-07T11:20:57;4.20;;;0.60;;
39694;SDS011;25367;-35.352;149.036;2023-05-07T11:26:55;1.27;;;0.70;;
39694;SDS011;25367;-35.352;149.036;2023-05-07T11:29:26;0.55;;;0.40;;
39694;SDS011;25367;-35.352;149.036;2023-05-07T11:32:04;1.10;;;0.60;;
39694;SDS011;25367;-35.352;149.036;2023-05-07T11:34:53;0.82;;;0.57;;
39694;SDS011;25367;-35.352;149.036;2023-05-07T11:37:26;3.22;;;0.55;;
39694;SDS011;25367;-35.352;149.036;2023-05-07T11:40:05;5.28;;;0.70;;
39694;SDS011;25367;-35.352;149.036;2023-05-07T11:42:36;1.33;;;0.50;;
39694;SDS011;25367;-35.352;149.036;2023-05-07T11:45:06;1.35;;;0.55;;
39694;SDS011;25367;-35.352;149.036;2023-05-07T11:47:36;1.50;;;0.45;;
39694;SDS011;25367;-35.352;149.036;2023-05-07T11:50:11;1.58;;;0.70;;
39694;SDS011;25367;-35.352;149.036;2023-05-07T11:52:49;1.08;;;0.52;;
39694;SDS011;25367;-35.352;149.036;2023-05-07T11:55:19;5.38;;;1.02;;
39694;SDS011;25367;-35.352;149.036;2023-05-07T11:57:49;0.57;;;0.40;;
39694;SDS011;25367;-35.352;149.036;2023-05-07T12:00:18;0.70;;;0.40;;
39694;SDS011;25367;-35.352;149.036;2023-05-07T12:02:48;1.50;;;0.55;;
39694;SDS011;25367;-35.352;149.036;2023-05-07T12:05:17;6.57;;;0.60;;
39694;SDS011;25367;-35.352;149.036;2023-05-07T12:07:50;0.82;;;0.60;;
39694;SDS011;25367;-35.352;149.036;2023-05-07T12:10:25;1.30;;;0.75;;
39694;SDS011;25367;-35.352;149.036;2023-05-07T12:12:55;0.30;;;0.30;;
39694;SDS011;25367;-35.352;149.036;2023-05-07T12:15:24;8.52;;;0.63;;
39694;SDS011;25367;-35.352;149.036;2023-05-07T12:17:55;2.47;;;0.40;;
39694;SDS011;25367;-35.352;149.036;2023-05-07T12:20:24;2.42;;;0.22;;
39694;SDS011;25367;-35.352;149.036;2023-05-07T12:22:57;0.40;;;0.30;;
39694;SDS011;25367;-35.352;149.036;2023-05-07T12:25:30;0.85;;;0.20;;
39694;SDS011;25367;-35.352;149.036;2023-05-07T12:28:00;0.73;;;0.40;;
39694;SDS011;25367;-35.352;149.036;2023-05-07T12:30:30;2.58;;;0.40;;
39694;SDS011;25367;-35.352;149.036;2023-05-07T21:23:18;0.43;;;0.30;;
39694;SDS011;25367;-35.352;149.036;2023-05-07T21:28:16;3.08;;;0.35;;
39694;SDS011;25367;-35.352;149.036;2023-05-07T21:30:46;0.68;;;0.25;;
39694;SDS011;25367;-35.352;149.036;2023-05-07T21:33:16;6.30;;;0.77;;
39694;SDS011;25367;-35.352;149.036;2023-05-07T21:35:46;4.10;;;0.40;;
